Time;durP1;ratioP1;P1;durP2;ratioP2;P2;SDS_P1;SDS_P2;PMS_P1;PMS_P2;Temp;Humidity;BMP_temperature;BMP_pressure;BME280_temperature;BME280_humidity;BME280_pressure;Samples;Min_cycle;Max_cycle;Signal;HPM_P1;HPM_P2
2022/06/19 00:01:45;;;;;;;0.50;0.50;;;10.60;99.90;;;;;;5138254;27;20186;-70
2022/06/19 00:04:12;;;;;;;0.60;0.60;;;10.50;99.90;;;;;;5157346;27;20242;-72
2022/06/19 00:06:38;;;;;;;0.60;0.60;;;10.40;99.90;;;;;;5138074;27;20668;-71
2022/06/19 00:09:06;;;;;;;0.50;0.50;;;10.30;99.90;;;;;;5156827;27;20242;-72
2022/06/19 00:11:33;;;;;;;0.50;0.50;;;10.10;99.90;;;;;;5156599;27;20701;-71
2022/06/19 00:14:00;;;;;;;0.50;0.50;;;10.00;99.90;;;;;;5138127;27;20202;-74
2022/06/19 00:16:26;;;;;;;0.85;0.85;;;9.90;99.90;;;;;;5156418;27;20656;-71
2022/06/19 00:18:52;;;;;;;0.50;0.50;;;9.80;99.90;;;;;;5156451;27;20637;-73
2022/06/19 00:21:18;;;;;;;0.60;0.60;;;9.70;99.90;;;;;;5137700;27;20200;-72
2022/06/19 00:23:45;;;;;;;0.60;0.60;;;9.60;99.90;;;;;;5156541;27;20558;-72
2022/06/19 00:26:12;;;;;;;0.60;0.60;;;9.60;99.90;;;;;;5156518;27;20200;-72
2022/06/19 00:28:40;;;;;;;0.50;0.50;;;9.40;99.90;;;;;;5137692;27;20254;-72
2022/06/19 00:31:07;;;;;;;1.40;1.30;;;9.30;99.90;;;;;;5144824;27;20551;-72
2022/06/19 00:33:33;;;;;;;0.60;0.60;;;9.20;99.90;;;;;;5135296;27;20199;-73
2022/06/19 00:35:58;;;;;;;0.60;0.60;;;9.20;99.90;;;;;;5135559;27;20183;-73
2022/06/19 00:38:24;;;;;;;0.60;0.60;;;9.20;99.90;;;;;;5135485;27;20232;-72
2022/06/19 00:40:50;;;;;;;0.63;0.63;;;9.10;99.90;;;;;;5135670;27;20198;-73
2022/06/19 00:43:15;;;;;;;0.60;0.60;;;9.00;99.90;;;;;;5156160;27;20194;-72
2022/06/19 00:45:50;;;;;;;0.60;0.60;;;8.80;99.90;;;;;;5155777;27;20182;-72
2022/06/19 00:48:30;;;;;;;0.60;0.60;;;8.70;99.90;;;;;;5137105;27;20232;-72
2022/06/19 00:51:00;;;;;;;0.63;0.63;;;8.70;99.90;;;;;;5134702;27;20194;-71
2022/06/19 00:53:50;;;;;;;0.60;0.60;;;8.70;99.90;;;;;;5135026;27;20619;-71
2022/06/19 00:56:19;;;;;;;0.65;0.65;;;8.70;99.90;;;;;;5122395;27;20704;-70
2022/06/19 00:58:47;;;;;;;0.70;0.70;;;8.70;99.90;;;;;;5116824;27;20202;-71
2022/06/19 01:01:15;;;;;;;0.70;0.70;;;8.60;99.90;;;;;;5116572;27;20203;-71
2022/06/19 01:03:51;;;;;;;0.60;0.60;;;8.60;99.90;;;;;;5134701;27;20718;-73
2022/06/19 01:06:17;;;;;;;0.70;0.70;;;8.70;99.90;;;;;;5134983;27;20554;-73
2022/06/19 01:08:43;;;;;;;0.60;0.60;;;8.60;99.90;;;;;;5134814;27;20186;-73
2022/06/19 01:11:12;;;;;;;0.60;0.60;;;8.50;99.90;;;;;;5135669;27;20274;-73
2022/06/19 01:13:38;;;;;;;0.68;0.68;;;8.40;99.90;;;;;;5135641;27;20680;-73
2022/06/19 01:16:05;;;;;;;0.60;0.60;;;8.30;99.90;;;;;;5129356;27;20186;-73
2022/06/19 01:18:33;;;;;;;0.60;0.60;;;8.10;99.90;;;;;;5155239;27;20189;-73
2022/06/19 01:21:25;;;;;;;0.65;0.65;;;8.10;99.90;;;;;;5155422;27;20190;-71
2022/06/19 01:24:11;;;;;;;0.60;0.60;;;8.00;99.90;;;;;;5155441;27;20228;-72
2022/06/19 01:26:41;;;;;;;0.65;0.65;;;7.90;99.90;;;;;;5136585;27;20190;-71
2022/06/19 01:29:08;;;;;;;0.60;0.60;;;7.90;99.90;;;;;;5155321;27;20558;-72
2022/06/19 01:31:41;;;;;;;0.70;0.70;;;7.80;99.90;;;;;;5136409;27;20198;-71
2022/06/19 01:34:27;;;;;;;0.70;0.70;;;7.80;99.90;;;;;;5155106;27;20206;-71
2022/06/19 01:37:02;;;;;;;0.60;0.60;;;7.80;99.90;;;;;;5155168;27;20186;-72
2022/06/19 01:39:32;;;;;;;0.70;0.70;;;7.70;99.90;;;;;;5134229;27;20275;-71
2022/06/19 01:41:58;;;;;;;0.60;0.60;;;7.80;99.90;;;;;;5146622;27;20727;-71
2022/06/19 01:44:24;;;;;;;0.75;0.75;;;7.80;99.90;;;;;;5175622;27;20224;-72
2022/06/19 01:46:50;;;;;;;0.60;0.60;;;7.70;99.90;;;;;;5175952;27;20201;-71
2022/06/19 01:49:16;;;;;;;0.70;0.70;;;7.70;99.90;;;;;;5166786;27;20202;-71
2022/06/19 01:51:42;;;;;;;0.55;0.55;;;7.60;99.90;;;;;;5154519;27;20688;-71
2022/06/19 01:54:25;;;;;;;0.60;0.60;;;7.50;99.90;;;;;;5154686;27;20251;-73
2022/06/19 01:56:53;;;;;;;0.70;0.70;;;7.50;99.90;;;;;;5136274;27;20194;-71
2022/06/19 01:59:21;;;;;;;0.70;0.70;;;7.50;99.90;;;;;;5154554;27;20213;-71
2022/06/19 02:01:49;;;;;;;0.70;0.70;;;7.40;99.90;;;;;;5134246;27;20194;-70
2022/06/19 02:04:14;;;;;;;0.70;0.70;;;7.40;99.90;;;;;;5154567;27;20197;-71
2022/06/19 02:06:46;;;;;;;0.60;0.60;;;7.40;99.90;;;;;;5136208;27;20194;-71
2022/06/19 02:09:15;;;;;;;0.70;0.70;;;7.40;99.90;;;;;;5154593;27;20201;-71
2022/06/19 02:11:41;;;;;;;0.80;0.80;;;7.30;99.90;;;;;;5154208;27;20557;-71
2022/06/19 02:14:09;;;;;;;0.70;0.70;;;7.30;99.90;;;;;;5153688;27;20203;-72
2022/06/19 02:16:40;;;;;;;0.60;0.60;;;7.40;99.90;;;;;;5135725;27;20243;-72
2022/06/19 02:19:06;;;;;;;0.70;0.70;;;7.40;99.90;;;;;;5154350;27;20209;-71
2022/06/19 02:21:42;;;;;;;0.70;0.70;;;7.40;99.90;;;;;;5135502;27;20246;-70
2022/06/19 02:24:11;;;;;;;0.60;0.60;;;7.40;99.90;;;;;;5154130;27;20240;-71
2022/06/19 02:26:38;;;;;;;0.60;0.60;;;7.40;99.90;;;;;;5154021;27;20194;-70
2022/06/19 02:29:09;;;;;;;0.70;0.70;;;7.40;99.90;;;;;;5135578;27;20216;-70
2022/06/19 02:31:37;;;;;;;0.60;0.60;;;7.40;99.90;;;;;;5153845;27;20190;-71
2022/06/19 02:34:15;;;;;;;0.60;0.60;;;7.40;99.90;;;;;;5153801;27;20198;-70
2022/06/19 02:36:54;;;;;;;0.50;0.50;;;7.40;99.90;;;;;;5135263;27;20196;-73
2022/06/19 02:39:45;;;;;;;0.70;0.70;;;7.50;99.90;;;;;;5169498;27;20602;-73
2022/06/19 02:42:19;;;;;;;0.60;0.60;;;7.50;99.90;;;;;;5174772;27;20242;-73
2022/06/19 02:44:47;;;;;;;0.70;0.70;;;7.50;99.90;;;;;;5155980;27;20189;-70
2022/06/19 02:47:13;;;;;;;0.60;0.60;;;7.50;99.90;;;;;;5155919;27;20209;-71
2022/06/19 02:49:39;;;;;;;0.70;0.70;;;7.50;99.90;;;;;;5162480;27;20194;-70
2022/06/19 02:52:06;;;;;;;0.60;0.60;;;7.60;99.90;;;;;;5153541;27;20214;-73
2022/06/19 02:54:32;;;;;;;0.60;0.60;;;7.60;99.90;;;;;;5153555;27;20217;-73
2022/06/19 02:56:58;;;;;;;0.70;0.70;;;7.70;99.90;;;;;;5134937;27;20190;-72
2022/06/19 02:59:23;;;;;;;0.60;0.60;;;7.80;99.90;;;;;;5134810;27;20210;-72
2022/06/19 03:01:49;;;;;;;0.57;0.57;;;7.80;99.90;;;;;;5124894;27;20186;-73
2022/06/19 03:04:23;;;;;;;0.55;0.55;;;7.90;99.90;;;;;;5139289;27;20247;-70
2022/06/19 03:06:50;;;;;;;0.57;0.57;;;8.00;99.90;;;;;;5132846;27;20651;-72
2022/06/19 03:09:16;;;;;;;0.70;0.70;;;8.00;99.90;;;;;;5151717;27;20205;-72
2022/06/19 03:11:42;;;;;;;0.60;0.60;;;8.10;99.90;;;;;;5134789;27;20194;-73
2022/06/19 03:14:08;;;;;;;0.70;0.70;;;8.10;99.90;;;;;;5153332;27;20221;-74
2022/06/19 03:16:34;;;;;;;0.60;0.60;;;8.20;99.90;;;;;;5153138;27;20186;-72
2022/06/19 03:19:00;;;;;;;0.60;0.60;;;8.30;99.90;;;;;;5148633;27;20730;-72
2022/06/19 03:21:26;;;;;;;0.65;0.65;;;8.30;99.90;;;;;;5114032;27;20672;-73
2022/06/19 03:23:52;;;;;;;0.60;0.60;;;8.40;99.90;;;;;;5132638;27;20194;-72
2022/06/19 03:26:18;;;;;;;0.60;0.60;;;8.50;99.90;;;;;;5113831;27;20609;-72
2022/06/19 03:28:43;;;;;;;0.70;0.70;;;8.50;99.90;;;;;;5132588;27;20201;-72
2022/06/19 03:31:21;;;;;;;0.68;0.68;;;8.60;99.90;;;;;;5127814;27;20206;-71
2022/06/19 03:33:47;;;;;;;0.60;0.60;;;8.70;99.90;;;;;;5134286;27;20690;-72
2022/06/19 03:36:13;;;;;;;0.70;0.70;;;8.70;99.90;;;;;;5153178;27;20186;-74
2022/06/19 03:38:38;;;;;;;0.80;0.80;;;8.80;99.90;;;;;;5152953;27;20273;-72
2022/06/19 03:41:04;;;;;;;0.60;0.60;;;8.80;99.90;;;;;;5153469;27;20842;-72
2022/06/19 03:43:33;;;;;;;0.80;0.80;;;8.90;99.90;;;;;;5152852;27;20250;-70
2022/06/19 03:46:12;;;;;;;0.60;0.60;;;8.90;99.90;;;;;;5153093;27;20194;-70
2022/06/19 03:48:42;;;;;;;0.55;0.55;;;9.00;99.90;;;;;;5152749;27;20739;-70
2022/06/19 03:51:08;;;;;;;0.52;0.52;;;9.10;99.90;;;;;;5152821;27;20185;-70
2022/06/19 03:53:34;;;;;;;0.50;0.50;;;9.20;99.90;;;;;;5152543;27;20202;-71
2022/06/19 03:56:01;;;;;;;0.70;0.70;;;9.30;99.90;;;;;;5152851;27;20261;-71
2022/06/19 04:01:20;;;;;;;0.60;0.60;;;9.50;99.90;;;;;;5152818;27;20189;-70
2022/06/19 04:03:48;;;;;;;0.60;0.60;;;9.70;99.90;;;;;;5134260;27;20562;-71
2022/06/19 04:06:16;;;;;;;0.60;0.60;;;9.80;99.90;;;;;;5152888;27;20644;-71
2022/06/19 04:08:44;;;;;;;0.60;0.60;;;9.90;99.90;;;;;;5134135;27;20229;-71
2022/06/19 04:11:10;;;;;;;3.22;1.70;;;10.00;99.90;;;;;;5152859;27;20182;-71
2022/06/19 04:13:36;;;;;;;0.93;0.93;;;10.10;99.90;;;;;;5152600;27;20297;-71
2022/06/19 04:16:04;;;;;;;0.60;0.60;;;10.30;99.90;;;;;;5152708;27;20668;-71
2022/06/19 04:18:30;;;;;;;0.57;0.57;;;10.40;99.90;;;;;;5134018;27;20702;-71
2022/06/19 04:20:57;;;;;;;0.60;0.60;;;10.50;99.90;;;;;;5134177;27;20194;-70
2022/06/19 04:23:23;;;;;;;0.60;0.60;;;10.70;99.90;;;;;;5133849;27;20285;-71
2022/06/19 04:25:49;;;;;;;0.60;0.60;;;10.80;99.90;;;;;;5134024;27;20569;-71
2022/06/19 04:28:17;;;;;;;0.57;0.57;;;10.90;99.90;;;;;;5152609;27;20365;-71
2022/06/19 04:30:46;;;;;;;0.70;0.70;;;11.10;99.90;;;;;;5134039;27;20194;-70
2022/06/19 04:33:18;;;;;;;0.40;0.40;;;11.30;99.90;;;;;;5134762;27;20339;-70
2022/06/19 04:35:45;;;;;;;0.57;0.57;;;11.40;99.90;;;;;;5152893;27;20183;-71
2022/06/19 04:38:11;;;;;;;0.60;0.60;;;11.50;99.90;;;;;;5154811;27;20186;-70
2022/06/19 04:40:37;;;;;;;0.73;0.73;;;11.60;99.90;;;;;;5156478;27;20316;-70
2022/06/19 04:43:04;;;;;;;0.40;0.40;;;11.80;99.90;;;;;;5156433;27;20266;-71
2022/06/19 04:45:30;;;;;;;0.40;0.40;;;11.90;99.90;;;;;;5138131;27;20186;-72
2022/06/19 04:47:57;;;;;;;0.45;0.45;;;12.00;99.90;;;;;;5156230;27;20285;-71
2022/06/19 04:50:22;;;;;;;0.47;0.47;;;12.10;99.90;;;;;;5155830;27;20648;-71
2022/06/19 04:52:48;;;;;;;0.40;0.40;;;12.20;99.90;;;;;;5137253;27;20232;-70
2022/06/19 04:55:17;;;;;;;0.50;0.50;;;12.20;99.90;;;;;;5156106;27;20225;-71
2022/06/19 04:57:43;;;;;;;0.50;0.50;;;12.30;99.90;;;;;;5155928;27;20194;-71
2022/06/19 05:00:13;;;;;;;0.55;0.55;;;12.40;99.90;;;;;;5137273;27;20550;-71
2022/06/19 05:02:39;;;;;;;0.52;0.52;;;12.50;99.90;;;;;;5155626;27;20645;-71
2022/06/19 05:05:07;;;;;;;0.35;0.35;;;12.50;99.90;;;;;;5155901;27;20217;-71
2022/06/19 05:07:34;;;;;;;0.47;0.47;;;12.60;99.90;;;;;;5137034;27;20561;-71
2022/06/19 05:10:00;;;;;;;0.55;0.55;;;12.70;99.90;;;;;;5155786;27;20532;-71
2022/06/19 05:12:27;;;;;;;3.22;1.02;;;12.70;99.90;;;;;;5124283;27;20289;-71
2022/06/19 05:14:55;;;;;;;0.50;0.50;;;12.80;99.90;;;;;;5134881;27;20203;-73
2022/06/19 05:17:21;;;;;;;0.40;0.40;;;12.90;99.90;;;;;;5134635;27;20235;-72
2022/06/19 05:19:47;;;;;;;0.47;0.47;;;13.10;99.90;;;;;;5134790;27;20657;-73
2022/06/19 05:22:12;;;;;;;0.50;0.50;;;13.20;99.90;;;;;;5136135;27;20198;-73
2022/06/19 05:24:38;;;;;;;5.07;0.65;;;13.30;99.90;;;;;;5155271;27;20202;-73
2022/06/19 05:27:12;;;;;;;0.80;0.75;;;13.40;99.90;;;;;;5136655;27;20190;-73
2022/06/19 05:29:38;;;;;;;0.45;0.45;;;13.50;99.90;;;;;;5155265;27;20286;-72
2022/06/19 05:32:05;;;;;;;0.30;0.30;;;13.60;99.90;;;;;;5155347;27;20635;-70
2022/06/19 05:34:32;;;;;;;0.40;0.40;;;13.70;99.90;;;;;;5136364;27;20702;-72
2022/06/19 05:36:58;;;;;;;0.30;0.30;;;13.90;99.90;;;;;;5155304;27;20197;-73
2022/06/19 05:39:24;;;;;;;0.35;0.35;;;14.00;99.90;;;;;;5154990;27;20187;-70
2022/06/19 05:41:49;;;;;;;0.40;0.40;;;14.00;99.90;;;;;;5136449;27;20186;-72
2022/06/19 05:44:15;;;;;;;0.40;0.40;;;14.10;99.90;;;;;;5155072;27;20186;-73
2022/06/19 05:46:44;;;;;;;0.40;0.40;;;14.20;99.90;;;;;;5154898;27;20196;-72
2022/06/19 05:49:10;;;;;;;0.40;0.40;;;14.10;99.90;;;;;;5135116;27;20649;-72
2022/06/19 05:51:38;;;;;;;0.55;0.55;;;14.30;99.90;;;;;;5154440;27;20651;-71
2022/06/19 05:54:04;;;;;;;0.38;0.38;;;14.50;99.90;;;;;;5136188;27;20692;-71
2022/06/19 05:56:30;;;;;;;0.38;0.38;;;14.60;99.90;;;;;;5154464;27;20241;-71
2022/06/19 05:58:56;;;;;;;0.50;0.50;;;14.70;99.90;;;;;;5136241;27;20412;-72
2022/06/19 06:01:23;;;;;;;0.90;0.90;;;14.70;99.90;;;;;;5154363;27;20192;-71
2022/06/19 06:03:49;;;;;;;0.35;0.35;;;14.70;99.90;;;;;;5154744;27;20194;-71
2022/06/19 06:06:20;;;;;;;0.43;0.43;;;14.60;99.90;;;;;;5154556;27;20190;-72
2022/06/19 06:08:46;;;;;;;0.60;0.60;;;14.60;99.90;;;;;;5154589;27;20595;-71
2022/06/19 06:11:13;;;;;;;0.40;0.40;;;14.70;99.90;;;;;;5154457;27;20201;-72
2022/06/19 06:13:40;;;;;;;0.40;0.40;;;14.80;99.90;;;;;;5154593;27;20198;-73
2022/06/19 06:16:06;;;;;;;0.30;0.30;;;15.00;99.90;;;;;;5154504;27;20179;-73
2022/06/19 06:18:32;;;;;;;0.30;0.30;;;15.70;99.90;;;;;;5154017;27;20186;-74
2022/06/19 06:21:06;;;;;;;0.30;0.30;;;16.30;99.90;;;;;;5154376;27;20688;-74
2022/06/19 06:23:33;;;;;;;0.30;0.30;;;16.60;99.90;;;;;;5153968;27;20425;-73
2022/06/19 06:26:03;;;;;;;0.40;0.40;;;17.00;99.90;;;;;;5154407;27;20670;-73
2022/06/19 06:28:29;;;;;;;2.30;0.75;;;17.50;99.90;;;;;;5153938;27;20219;-76
2022/06/19 06:30:55;;;;;;;0.35;0.35;;;17.50;99.90;;;;;;5135587;27;20204;-73
2022/06/19 06:33:21;;;;;;;0.40;0.40;;;17.60;99.90;;;;;;5135180;27;20206;-74
2022/06/19 06:35:47;;;;;;;0.45;0.45;;;18.20;99.90;;;;;;5135386;27;20668;-73
2022/06/19 06:38:13;;;;;;;0.30;0.30;;;17.90;99.90;;;;;;5154140;27;20243;-74
2022/06/19 06:40:39;;;;;;;0.30;0.30;;;17.90;99.90;;;;;;5135095;27;20210;-75
2022/06/19 06:43:04;;;;;;;0.30;0.30;;;17.60;99.90;;;;;;5154309;27;20194;-73
2022/06/19 06:45:30;;;;;;;0.20;0.20;;;18.00;99.90;;;;;;5135522;27;20216;-76
2022/06/19 06:47:56;;;;;;;0.20;0.20;;;18.50;99.90;;;;;;5154646;27;20414;-75
2022/06/19 06:50:22;;;;;;;0.30;0.30;;;18.60;99.90;;;;;;5156545;27;20212;-74
2022/06/19 06:52:48;;;;;;;1.65;0.57;;;19.00;99.90;;;;;;5154689;27;20241;-75
2022/06/19 06:55:14;;;;;;;0.20;0.20;;;18.80;99.90;;;;;;5153940;27;20252;-74
2022/06/19 06:57:41;;;;;;;0.30;0.30;;;18.90;99.90;;;;;;5135082;27;20218;-74
2022/06/19 07:00:09;;;;;;;0.17;0.17;;;18.80;99.90;;;;;;5159038;27;20185;-74
2022/06/19 07:02:34;;;;;;;0.30;0.30;;;18.50;99.90;;;;;;5143106;27;20711;-75
2022/06/19 07:05:00;;;;;;;0.20;0.20;;;18.50;99.90;;;;;;5140749;27;20229;-76
2022/06/19 07:07:26;;;;;;;0.20;0.20;;;18.50;99.90;;;;;;5161608;27;20191;-77
2022/06/19 07:09:51;;;;;;;0.50;0.40;;;18.60;99.90;;;;;;5161451;27;20704;-75
2022/06/19 07:12:17;;;;;;;0.25;0.25;;;18.90;99.90;;;;;;5160753;27;20218;-76
2022/06/19 07:14:43;;;;;;;0.40;0.40;;;19.00;99.90;;;;;;5142706;27;20221;-75
2022/06/19 07:17:08;;;;;;;0.32;0.32;;;18.80;99.90;;;;;;5155559;27;20209;-76
2022/06/19 07:19:34;;;;;;;0.20;0.20;;;18.80;99.90;;;;;;5153764;27;20194;-77
2022/06/19 07:22:00;;;;;;;0.30;0.30;;;19.00;99.90;;;;;;5153839;27;20652;-73
2022/06/19 07:24:27;;;;;;;0.40;0.35;;;19.30;97.20;;;;;;5153614;27;20676;-76
2022/06/19 07:26:56;;;;;;;0.30;0.30;;;19.10;99.90;;;;;;5153484;27;20656;-76
2022/06/19 07:29:21;;;;;;;0.40;0.40;;;19.40;98.60;;;;;;5152995;27;20194;-76
2022/06/19 07:31:47;;;;;;;0.50;0.30;;;19.80;99.90;;;;;;5134765;27;20599;-76
2022/06/19 07:34:13;;;;;;;0.30;0.30;;;20.00;98.30;;;;;;5134559;27;20308;-76
2022/06/19 07:36:38;;;;;;;0.20;0.20;;;19.70;95.30;;;;;;5134421;27;20202;-75
2022/06/19 07:39:05;;;;;;;0.45;0.45;;;19.60;98.80;;;;;;5153242;27;20197;-76
2022/06/19 07:41:31;;;;;;;0.20;0.20;;;19.90;97.80;;;;;;5152787;27;20194;-76
2022/06/19 07:43:56;;;;;;;0.47;0.40;;;20.00;98.90;;;;;;5153069;27;20193;-75
2022/06/19 07:46:23;;;;;;;0.20;0.20;;;20.70;98.30;;;;;;5134264;27;20190;-76
2022/06/19 07:51:34;;;;;;;0.20;0.20;;;20.80;91.60;;;;;;5152974;27;20245;-75
2022/06/19 07:54:01;;;;;;;0.20;0.20;;;20.60;95.20;;;;;;5134242;27;20660;-76
2022/06/19 07:56:27;;;;;;;0.38;0.38;;;20.50;91.80;;;;;;5152888;27;20194;-76
2022/06/19 07:58:53;;;;;;;0.65;0.60;;;20.20;91.30;;;;;;5152928;27;20576;-76
2022/06/19 08:01:19;;;;;;;0.20;0.20;;;20.50;93.00;;;;;;5133813;27;20277;-76
2022/06/19 08:03:46;;;;;;;0.30;0.30;;;20.30;91.90;;;;;;5152893;27;20221;-76
2022/06/19 08:06:17;;;;;;;0.20;0.20;;;20.20;91.00;;;;;;5152945;27;20190;-76
2022/06/19 08:08:43;;;;;;;0.20;0.20;;;20.20;92.20;;;;;;5152828;27;20639;-76
2022/06/19 08:11:10;;;;;;;0.30;0.30;;;20.50;92.50;;;;;;5152741;27;20228;-76
2022/06/19 08:13:36;;;;;;;1.45;0.73;;;20.80;93.30;;;;;;5155549;27;20289;-75
2022/06/19 08:16:09;;;;;;;0.47;0.45;;;20.90;87.90;;;;;;5156917;27;20700;-76
2022/06/19 08:18:36;;;;;;;0.20;0.20;;;20.80;90.60;;;;;;5138110;27;20243;-75
2022/06/19 08:21:03;;;;;;;0.47;0.47;;;20.80;85.40;;;;;;5157126;27;20190;-74
2022/06/19 08:23:30;;;;;;;0.20;0.20;;;21.10;92.30;;;;;;5156429;27;20194;-75
2022/06/19 08:25:56;;;;;;;0.35;0.30;;;21.20;90.60;;;;;;5156638;27;20281;-75
2022/06/19 08:31:07;;;;;;;0.20;0.20;;;20.80;89.00;;;;;;5156789;27;20262;-74
2022/06/19 08:33:32;;;;;;;0.20;0.20;;;21.10;89.90;;;;;;5137548;27;20667;-75
2022/06/19 08:36:02;;;;;;;0.57;0.47;;;21.30;82.60;;;;;;5156348;27;20198;-76
2022/06/19 08:38:33;;;;;;;0.20;0.20;;;21.40;85.90;;;;;;5156065;27;20181;-78
2022/06/19 08:41:20;;;;;;;0.20;0.20;;;21.50;83.30;;;;;;5156382;27;20189;-77
2022/06/19 08:44:28;;;;;;;0.20;0.20;;;21.30;78.00;;;;;;5156352;27;20215;-76
2022/06/19 08:46:54;;;;;;;0.20;0.20;;;21.10;83.10;;;;;;5126177;27;20217;-76
2022/06/19 08:49:42;;;;;;;0.20;0.20;;;21.40;79.30;;;;;;5137247;27;20198;-76
2022/06/19 08:52:32;;;;;;;0.10;0.10;;;21.70;80.70;;;;;;5155851;27;20241;-76
2022/06/19 08:55:19;;;;;;;0.30;0.30;;;21.90;83.40;;;;;;5156022;27;20294;-75
2022/06/19 08:57:53;;;;;;;0.30;0.22;;;21.50;83.40;;;;;;5155965;27;20193;-76
2022/06/19 09:00:32;;;;;;;0.20;0.20;;;21.80;84.60;;;;;;5137160;27;20193;-77
2022/06/19 09:03:08;;;;;;;0.20;0.20;;;22.40;87.30;;;;;;5156715;27;20226;-76
2022/06/19 09:05:50;;;;;;;0.20;0.20;;;22.90;80.10;;;;;;5156040;27;20189;-74
2022/06/19 09:08:29;;;;;;;0.30;0.30;;;22.90;83.50;;;;;;5156082;27;20296;-75
2022/06/19 09:10:57;;;;;;;0.20;0.20;;;22.70;81.60;;;;;;5155241;27;20400;-75
2022/06/19 09:13:40;;;;;;;0.20;0.20;;;22.80;84.90;;;;;;5136978;27;20206;-75
2022/06/19 09:16:41;;;;;;;0.88;0.32;;;22.40;85.00;;;;;;5155833;27;20194;-75
2022/06/19 09:19:40;;;;;;;0.30;0.30;;;22.30;78.10;;;;;;5133135;27;20435;-76
2022/06/19 09:22:17;;;;;;;0.10;0.10;;;22.40;81.40;;;;;;5155905;27;20190;-78
2022/06/19 09:25:16;;;;;;;0.10;0.10;;;22.60;79.60;;;;;;5155747;27;20189;-79
2022/06/19 09:27:49;;;;;;;0.10;0.10;;;23.30;83.40;;;;;;5151436;27;20206;-76
2022/06/19 09:30:29;;;;;;;0.13;0.13;;;23.80;77.50;;;;;;5136627;27;20201;-80
2022/06/19 09:33:01;;;;;;;0.15;0.15;;;24.30;77.90;;;;;;5157025;27;20250;-79
2022/06/19 09:35:43;;;;;;;0.25;0.25;;;24.20;80.70;;;;;;5141258;27;20198;-78
2022/06/19 09:38:29;;;;;;;0.10;0.10;;;24.30;76.10;;;;;;5157365;27;20186;-75
2022/06/19 09:41:04;;;;;;;0.20;0.20;;;24.10;73.70;;;;;;5156863;27;20668;-75
2022/06/19 09:43:44;;;;;;;0.30;0.30;;;24.70;79.00;;;;;;5157032;27;20185;-75
2022/06/19 09:46:22;;;;;;;0.17;0.17;;;24.40;69.30;;;;;;5157424;27;20716;-73
2022/06/19 09:48:53;;;;;;;0.30;0.30;;;23.50;68.40;;;;;;5133532;27;20191;-74
2022/06/19 09:51:32;;;;;;;0.20;0.20;;;23.00;72.30;;;;;;5118931;27;20194;-80
2022/06/19 09:54:34;;;;;;;0.10;0.10;;;22.90;70.50;;;;;;5124216;28;20286;-80
2022/06/19 09:57:15;;;;;;;0.20;0.20;;;23.00;70.40;;;;;;5129711;28;20191;-78
2022/06/19 10:00:05;;;;;;;0.20;0.20;;;23.50;70.10;;;;;;5126499;27;20191;-78
2022/06/19 10:02:44;;;;;;;0.10;0.10;;;23.60;72.10;;;;;;5149102;27;20613;-74
2022/06/19 10:05:34;;;;;;;0.13;0.13;;;23.60;66.60;;;;;;5139086;27;20285;-73
2022/06/19 10:08:16;;;;;;;0.20;0.20;;;23.30;71.70;;;;;;5136678;27;20191;-76
2022/06/19 10:10:58;;;;;;;0.10;0.10;;;24.00;73.80;;;;;;5133225;27;20487;-75
2022/06/19 10:13:30;;;;;;;0.30;0.30;;;24.20;72.70;;;;;;5132687;27;20203;-73
2022/06/19 10:15:56;;;;;;;0.20;0.20;;;24.60;79.20;;;;;;5134577;27;20197;-73
2022/06/19 10:18:30;;;;;;;0.20;0.20;;;24.50;68.20;;;;;;5132618;27;20211;-73
2022/06/19 10:22:13;;;;;;;0.20;0.20;;;24.30;69.40;;;;;;5133243;27;20451;-74
2022/06/19 10:24:18;;;;;;;0.10;0.10;;;24.60;76.30;;;;;;5135950;27;20301;-76
2022/06/19 10:26:54;;;;;;;0.10;0.10;;;24.70;64.30;;;;;;5133805;27;20636;-75
2022/06/19 10:29:38;;;;;;;1.08;0.57;;;24.80;68.10;;;;;;5133856;27;20248;-75
2022/06/19 10:32:41;;;;;;;0.35;0.35;;;24.40;63.60;;;;;;5134724;27;20191;-74
2022/06/19 10:35:33;;;;;;;0.20;0.20;;;24.00;68.00;;;;;;5133454;27;20322;-74
2022/06/19 10:38:31;;;;;;;0.20;0.20;;;24.10;70.40;;;;;;5132408;27;20243;-76
2022/06/19 10:41:03;;;;;;;0.20;0.20;;;24.10;62.80;;;;;;5132351;27;20251;-75
2022/06/19 10:43:53;;;;;;;0.10;0.10;;;24.20;69.80;;;;;;5131994;27;20194;-74
2022/06/19 10:46:40;;;;;;;0.20;0.20;;;24.40;63.70;;;;;;5133664;27;20194;-74
2022/06/19 10:49:05;;;;;;;0.30;0.30;;;24.70;70.20;;;;;;5134311;27;20191;-75
2022/06/19 10:51:48;;;;;;;0.45;0.28;;;24.60;66.40;;;;;;5133978;27;20565;-74
2022/06/19 10:54:14;;;;;;;0.10;0.10;;;24.70;67.00;;;;;;5153910;27;20568;-74
2022/06/19 10:57:09;;;;;;;0.30;0.30;;;24.50;61.80;;;;;;5135789;27;20194;-74
2022/06/19 10:59:35;;;;;;;0.30;0.30;;;24.50;66.90;;;;;;5153621;27;20190;-74
2022/06/19 11:05:10;;;;;;;0.70;0.20;;;24.80;66.50;;;;;;5153612;27;20254;-75
2022/06/19 11:07:36;;;;;;;0.10;0.10;;;24.70;62.60;;;;;;5135077;27;20224;-75
2022/06/19 11:10:08;;;;;;;0.10;0.10;;;25.10;67.00;;;;;;5153788;27;20186;-74
2022/06/19 11:12:40;;;;;;;0.10;0.10;;;25.00;64.40;;;;;;5155334;27;20269;-74
2022/06/19 11:15:09;;;;;;;0.10;0.10;;;25.40;62.10;;;;;;5137240;27;20201;-74
2022/06/19 11:17:41;;;;;;;0.10;0.10;;;25.50;60.40;;;;;;5154739;27;20277;-74
2022/06/19 11:20:30;;;;;;;1.10;0.38;;;25.70;58.80;;;;;;5135533;27;20193;-77
2022/06/19 11:23:07;;;;;;;0.10;0.10;;;25.60;63.80;;;;;;5153697;27;20265;-78
2022/06/19 11:25:40;;;;;;;0.17;0.17;;;26.00;65.10;;;;;;5135246;27;20197;-82
2022/06/19 11:28:17;;;;;;;0.10;0.10;;;25.80;64.90;;;;;;5153727;27;20272;-83
2022/06/19 11:30:50;;;;;;;0.10;0.10;;;25.50;64.20;;;;;;5134938;27;20383;-81
2022/06/19 11:33:19;;;;;;;0.17;0.17;;;25.20;58.80;;;;;;5153514;27;20592;-78
2022/06/19 11:35:55;;;;;;;0.10;0.10;;;25.50;67.30;;;;;;5153342;27;20193;-79
2022/06/19 11:38:35;;;;;;;0.10;0.10;;;25.70;61.10;;;;;;5153143;27;20550;-80
2022/06/19 11:41:13;;;;;;;0.10;0.10;;;25.80;62.40;;;;;;5153060;27;20727;-76
2022/06/19 11:43:39;;;;;;;0.10;0.10;;;26.10;64.00;;;;;;5134503;27;20204;-77
2022/06/19 11:46:19;;;;;;;0.52;0.20;;;26.40;63.40;;;;;;5141503;27;20727;-77
2022/06/19 11:48:45;;;;;;;0.47;0.28;;;26.40;59.90;;;;;;5135977;27;20190;-77
2022/06/19 11:51:23;;;;;;;0.10;0.10;;;26.30;60.10;;;;;;5136751;27;20187;-74
2022/06/19 11:53:55;;;;;;;0.52;0.40;;;26.20;63.90;;;;;;5136353;27;20530;-74
2022/06/19 11:56:35;;;;;;;0.10;0.10;;;26.40;60.00;;;;;;5141653;27;20216;-77
2022/06/19 11:59:04;;;;;;;1.30;1.20;;;26.00;57.40;;;;;;5157273;27;20194;-75
2022/06/19 12:01:42;;;;;;;0.52;0.52;;;25.80;61.40;;;;;;5156872;27;20678;-75
2022/06/19 12:04:34;;;;;;;0.10;0.10;;;26.20;59.40;;;;;;5138786;27;20218;-75
2022/06/19 12:07:21;;;;;;;0.40;0.40;;;26.50;58.60;;;;;;5157650;27;20202;-75
2022/06/19 12:10:00;;;;;;;0.10;0.10;;;26.30;59.40;;;;;;5156878;27;20232;-73
2022/06/19 12:12:28;;;;;;;0.45;0.40;;;26.80;61.30;;;;;;5157250;27;20199;-74
2022/06/19 12:15:13;;;;;;;0.17;0.17;;;27.20;60.80;;;;;;5157060;27;20201;-75
2022/06/19 12:17:44;;;;;;;0.10;0.10;;;27.30;57.90;;;;;;5155709;27;20225;-75
2022/06/19 12:20:10;;;;;;;0.10;0.10;;;27.10;62.30;;;;;;5138311;27;20247;-75
2022/06/19 12:23:09;;;;;;;0.10;0.10;;;26.80;59.40;;;;;;5156650;27;20198;-76
2022/06/19 12:25:45;;;;;;;0.17;0.17;;;26.70;56.30;;;;;;5152684;27;20206;-75
2022/06/19 12:28:31;;;;;;;0.10;0.10;;;27.20;63.30;;;;;;5157264;27;20589;-75
2022/06/19 12:31:06;;;;;;;0.65;0.40;;;27.00;54.50;;;;;;5138061;27;20193;-76
2022/06/19 12:33:41;;;;;;;0.10;0.10;;;27.40;59.40;;;;;;5137795;27;20213;-75
2022/06/19 12:36:18;;;;;;;0.10;0.10;;;27.70;55.80;;;;;;5138371;27;20242;-75
2022/06/19 12:38:46;;;;;;;0.10;0.10;;;27.30;56.90;;;;;;5156871;27;20239;-74
2022/06/19 12:41:30;;;;;;;0.10;0.10;;;26.70;57.10;;;;;;5136200;27;20617;-74
2022/06/19 12:44:01;;;;;;;0.10;0.10;;;26.70;56.10;;;;;;5117152;27;20191;-74
2022/06/19 12:46:46;;;;;;;0.00;0.00;;;26.80;62.40;;;;;;5135768;27;20226;-73
2022/06/19 12:49:42;;;;;;;0.20;0.20;;;26.90;55.30;;;;;;5121808;27;20243;-73
2022/06/19 12:52:26;;;;;;;0.10;0.10;;;27.10;64.40;;;;;;5136328;27;20226;-74
2022/06/19 12:55:19;;;;;;;0.35;0.35;;;27.40;54.40;;;;;;5137492;27;20218;-74
2022/06/19 12:58:27;;;;;;;0.15;0.15;;;27.80;56.90;;;;;;5155464;27;20197;-74
2022/06/19 13:00:58;;;;;;;0.08;0.08;;;27.80;59.00;;;;;;5156058;27;20197;-73
2022/06/19 13:03:24;;;;;;;0.10;0.10;;;27.90;55.60;;;;;;5155583;27;20182;-74
2022/06/19 13:05:49;;;;;;;1.02;0.20;;;27.80;63.20;;;;;;5137294;27;20200;-76
2022/06/19 13:08:40;;;;;;;0.20;0.20;;;27.70;53.10;;;;;;5137284;27;20238;-74
2022/06/19 13:11:32;;;;;;;0.10;0.10;;;27.60;52.70;;;;;;5137095;27;20232;-74
2022/06/19 13:14:44;;;;;;;0.10;0.10;;;27.40;51.90;;;;;;5155624;27;20774;-73
2022/06/19 13:17:25;;;;;;;1.95;0.30;;;26.90;60.30;;;;;;5137008;27;20350;-73
2022/06/19 13:20:09;;;;;;;0.10;0.10;;;27.20;55.90;;;;;;5154854;27;20197;-75
2022/06/19 13:22:57;;;;;;;0.10;0.10;;;27.80;57.80;;;;;;5155526;27;20655;-76
2022/06/19 13:25:58;;;;;;;0.20;0.20;;;28.50;53.10;;;;;;5155975;27;20665;-75
2022/06/19 13:28:52;;;;;;;0.10;0.10;;;28.70;54.30;;;;;;5136223;27;20213;-74